sensor_id;sensor_type;location;lat;lon;timestamp;temperature;humidity
20068;DHT22;10194;50.824;7.134;2022-10-04T00:01:29;9.90;99.90
20068;DHT22;10194;50.824;7.134;2022-10-04T00:04:21;9.90;99.90
20068;DHT22;10194;50.824;7.134;2022-10-04T00:07:02;9.90;99.90
20068;DHT22;10194;50.824;7.134;2022-10-04T00:09:42;9.70;99.90
20068;DHT22;10194;50.824;7.134;2022-10-04T00:15:19;9.60;99.90
20068;DHT22;10194;50.824;7.134;2022-10-04T00:25:50;9.50;99.90
20068;DHT22;10194;50.824;7.134;2022-10-04T00:31:09;9.50;99.90
20068;DHT22;10194;50.824;7.134;2022-10-04T00:36:53;9.50;99.90
20068;DHT22;10194;50.824;7.134;2022-10-04T00:45:01;9.50;99.90
20068;DHT22;10194;50.824;7.134;2022-10-04T00:50:48;9.50;99.90
20068;DHT22;10194;50.824;7.134;2022-10-04T00:56:12;9.50;99.90
20068;DHT22;10194;50.824;7.134;2022-10-04T01:01:52;9.50;99.90
20068;DHT22;10194;50.824;7.134;2022-10-04T01:04:40;9.40;99.90
20068;DHT22;10194;50.824;7.134;2022-10-04T01:07:10;9.50;99.90
20068;DHT22;10194;50.824;7.134;2022-10-04T01:09:44;9.40;99.90
20068;DHT22;10194;50.824;7.134;2022-10-04T01:12:25;9.40;99.90
20068;DHT22;10194;50.824;7.134;2022-10-04T01:15:38;9.30;99.90
20068;DHT22;10194;50.824;7.134;2022-10-04T01:18:28;9.30;99.90
20068;DHT22;10194;50.824;7.134;2022-10-04T01:31:47;9.40;99.90
20068;DHT22;10194;50.824;7.134;2022-10-04T01:34:17;9.40;99.90
20068;DHT22;10194;50.824;7.134;2022-10-04T01:36:45;9.50;99.90
20068;DHT22;10194;50.824;7.134;2022-10-04T01:39:12;9.60;99.90
20068;DHT22;10194;50.824;7.134;2022-10-04T01:41:54;9.60;99.90
20068;DHT22;10194;50.824;7.134;2022-10-04T01:44:34;9.70;99.90
20068;DHT22;10194;50.824;7.134;2022-10-04T01:47:13;9.60;99.90
20068;DHT22;10194;50.824;7.134;2022-10-04T01:49:44;9.60;99.90
20068;DHT22;10194;50.824;7.134;2022-10-04T01:52:22;9.50;99.90
20068;DHT22;10194;50.824;7.134;2022-10-04T01:55:00;9.60;99.90
20068;DHT22;10194;50.824;7.134;2022-10-04T01:57:45;9.50;99.90
20068;DHT22;10194;50.824;7.134;2022-10-04T02:00:14;9.40;99.90
20068;DHT22;10194;50.824;7.134;2022-10-04T02:02:54;9.40;99.90
20068;DHT22;10194;50.824;7.134;2022-10-04T02:05:38;9.50;99.90
20068;DHT22;10194;50.824;7.134;2022-10-04T02:08:10;9.40;99.90
20068;DHT22;10194;50.824;7.134;2022-10-04T02:10:38;9.40;99.90
20068;DHT22;10194;50.824;7.134;2022-10-04T02:13:08;9.30;99.90
20068;DHT22;10194;50.824;7.134;2022-10-04T02:15:36;9.40;99.90
20068;DHT22;10194;50.824;7.134;2022-10-04T02:18:13;9.40;99.90
20068;DHT22;10194;50.824;7.134;2022-10-04T02:20:42;9.50;99.90
20068;DHT22;10194;50.824;7.134;2022-10-04T02:23:09;9.60;99.90
20068;DHT22;10194;50.824;7.134;2022-10-04T02:25:37;9.60;99.90
20068;DHT22;10194;50.824;7.134;2022-10-04T02:28:04;9.60;99.90
20068;DHT22;10194;50.824;7.134;2022-10-04T02:30:43;9.70;99.90
20068;DHT22;10194;50.824;7.134;2022-10-04T02:33:32;9.80;99.90
20068;DHT22;10194;50.824;7.134;2022-10-04T02:35:58;9.70;99.90
20068;DHT22;10194;50.824;7.134;2022-10-04T02:38:28;9.70;99.90
20068;DHT22;10194;50.824;7.134;2022-10-04T02:41:06;9.70;99.90
20068;DHT22;10194;50.824;7.134;2022-10-04T02:43:46;9.60;99.90
20068;DHT22;10194;50.824;7.134;2022-10-04T02:47:15;9.50;99.90
20068;DHT22;10194;50.824;7.134;2022-10-04T02:49:35;9.40;99.90
20068;DHT22;10194;50.824;7.134;2022-10-04T02:54:38;9.20;99.90
20068;DHT22;10194;50.824;7.134;2022-10-04T02:57:15;9.20;99.90
20068;DHT22;10194;50.824;7.134;2022-10-04T02:59:42;9.10;99.90
20068;DHT22;10194;50.824;7.134;2022-10-04T03:02:24;9.00;99.90
20068;DHT22;10194;50.824;7.134;2022-10-04T03:04:55;8.90;99.90
20068;DHT22;10194;50.824;7.134;2022-10-04T03:07:24;8.90;99.90
20068;DHT22;10194;50.824;7.134;2022-10-04T03:09:50;9.10;99.90
20068;DHT22;10194;50.824;7.134;2022-10-04T03:12:17;8.90;99.90
20068;DHT22;10194;50.824;7.134;2022-10-04T03:14:44;8.80;99.90
20068;DHT22;10194;50.824;7.134;2022-10-04T03:17:10;8.80;99.90
20068;DHT22;10194;50.824;7.134;2022-10-04T03:19:39;8.80;99.90
20068;DHT22;10194;50.824;7.134;2022-10-04T03:22:10;8.80;99.90
20068;DHT22;10194;50.824;7.134;2022-10-04T03:24:44;8.80;99.90
20068;DHT22;10194;50.824;7.134;2022-10-04T03:27:22;8.90;99.90
20068;DHT22;10194;50.824;7.134;2022-10-04T03:29:50;8.80;99.90
20068;DHT22;10194;50.824;7.134;2022-10-04T03:32:18;8.70;99.90
20068;DHT22;10194;50.824;7.134;2022-10-04T03:34:52;8.70;99.90
20068;DHT22;10194;50.824;7.134;2022-10-04T03:37:23;8.60;99.90
20068;DHT22;10194;50.824;7.134;2022-10-04T03:39:52;8.60;99.90
20068;DHT22;10194;50.824;7.134;2022-10-04T03:42:22;8.60;99.90
20068;DHT22;10194;50.824;7.134;2022-10-04T03:44:54;8.60;99.90
20068;DHT22;10194;50.824;7.134;2022-10-04T03:47:43;8.60;99.90
20068;DHT22;10194;50.824;7.134;2022-10-04T03:50:27;8.50;99.90
20068;DHT22;10194;50.824;7.134;2022-10-04T03:53:00;8.40;99.90
20068;DHT22;10194;50.824;7.134;2022-10-04T03:55:35;8.50;99.90
20068;DHT22;10194;50.824;7.134;2022-10-04T03:58:03;8.60;99.90
20068;DHT22;10194;50.824;7.134;2022-10-04T04:00:31;8.70;99.90
20068;DHT22;10194;50.824;7.134;2022-10-04T04:03:04;8.80;99.90
20068;DHT22;10194;50.824;7.134;2022-10-04T04:05:58;8.80;99.90
20068;DHT22;10194;50.824;7.134;2022-10-04T04:08:32;8.70;99.90
20068;DHT22;10194;50.824;7.134;2022-10-04T04:11:03;8.60;99.90
20068;DHT22;10194;50.824;7.134;2022-10-04T04:16:14;8.50;99.90
20068;DHT22;10194;50.824;7.134;2022-10-04T04:18:42;8.50;99.90
20068;DHT22;10194;50.824;7.134;2022-10-04T04:21:11;8.50;99.90
20068;DHT22;10194;50.824;7.134;2022-10-04T04:23:49;8.40;99.90
20068;DHT22;10194;50.824;7.134;2022-10-04T04:29:17;8.40;99.90
20068;DHT22;10194;50.824;7.134;2022-10-04T04:32:16;8.50;99.90
20068;DHT22;10194;50.824;7.134;2022-10-04T04:35:02;8.40;99.90
20068;DHT22;10194;50.824;7.134;2022-10-04T04:37:33;8.70;99.90
20068;DHT22;10194;50.824;7.134;2022-10-04T04:40:20;8.50;99.90
20068;DHT22;10194;50.824;7.134;2022-10-04T04:42:48;8.50;99.90
20068;DHT22;10194;50.824;7.134;2022-10-04T04:45:21;8.50;99.90
20068;DHT22;10194;50.824;7.134;2022-10-04T04:47:51;8.50;99.90
20068;DHT22;10194;50.824;7.134;2022-10-04T04:50:27;8.60;99.90
20068;DHT22;10194;50.824;7.134;2022-10-04T04:53:04;8.60;99.90
20068;DHT22;10194;50.824;7.134;2022-10-04T04:55:35;8.50;99.90
20068;DHT22;10194;50.824;7.134;2022-10-04T04:58:04;8.60;99.90
20068;DHT22;10194;50.824;7.134;2022-10-04T05:00:34;8.60;99.90
20068;DHT22;10194;50.824;7.134;2022-10-04T05:03:15;8.60;99.90
20068;DHT22;10194;50.824;7.134;2022-10-04T05:05:46;8.60;99.90
20068;DHT22;10194;50.824;7.134;2022-10-04T05:08:31;8.50;99.90
20068;DHT22;10194;50.824;7.134;2022-10-04T05:13:37;8.40;99.90
20068;DHT22;10194;50.824;7.134;2022-10-04T05:16:57;8.40;99.90
20068;DHT22;10194;50.824;7.134;2022-10-04T05:19:17;8.30;99.90
20068;DHT22;10194;50.824;7.134;2022-10-04T05:21:55;8.30;99.90
20068;DHT22;10194;50.824;7.134;2022-10-04T05:24:35;8.20;99.90
20068;DHT22;10194;50.824;7.134;2022-10-04T05:27:06;8.20;99.90
20068;DHT22;10194;50.824;7.134;2022-10-04T05:29:40;8.30;99.90
20068;DHT22;10194;50.824;7.134;2022-10-04T05:35:18;8.30;99.90
20068;DHT22;10194;50.824;7.134;2022-10-04T05:37:56;8.30;99.90
20068;DHT22;10194;50.824;7.134;2022-10-04T05:43:31;8.30;99.90
20068;DHT22;10194;50.824;7.134;2022-10-04T05:46:23;8.30;99.90
20068;DHT22;10194;50.824;7.134;2022-10-04T05:48:57;8.30;99.90
20068;DHT22;10194;50.824;7.134;2022-10-04T05:51:31;8.40;99.90
20068;DHT22;10194;50.824;7.134;2022-10-04T05:54:03;8.50;99.90
20068;DHT22;10194;50.824;7.134;2022-10-04T05:57:19;8.50;99.90
20068;DHT22;10194;50.824;7.134;2022-10-04T06:02:58;8.50;99.90
20068;DHT22;10194;50.824;7.134;2022-10-04T06:05:46;8.50;99.90
20068;DHT22;10194;50.824;7.134;2022-10-04T06:08:33;8.50;99.90
20068;DHT22;10194;50.824;7.134;2022-10-04T06:22:14;9.00;99.90
20068;DHT22;10194;50.824;7.134;2022-10-04T06:24:43;9.20;99.90
20068;DHT22;10194;50.824;7.134;2022-10-04T06:27:19;9.20;99.90
20068;DHT22;10194;50.824;7.134;2022-10-04T06:29:58;9.30;99.90
20068;DHT22;10194;50.824;7.134;2022-10-04T06:39:00;9.50;99.90
20068;DHT22;10194;50.824;7.134;2022-10-04T06:44:52;9.40;99.90
20068;DHT22;10194;50.824;7.134;2022-10-04T06:50:49;9.60;99.90
20068;DHT22;10194;50.824;7.134;2022-10-04T07:05:34;15.20;99.90
20068;DHT22;10194;50.824;7.134;2022-10-04T07:30:56;17.40;99.90
20068;DHT22;10194;50.824;7.134;2022-10-04T07:33:50;16.20;99.90
20068;DHT22;10194;50.824;7.134;2022-10-04T07:36:52;15.50;99.90
20068;DHT22;10194;50.824;7.134;2022-10-04T07:42:28;17.40;99.90
20068;DHT22;10194;50.824;7.134;2022-10-04T07:45:03;15.30;99.90
20068;DHT22;10194;50.824;7.134;2022-10-04T07:47:36;14.10;99.90
20068;DHT22;10194;50.824;7.134;2022-10-04T07:56:09;12.90;99.90
20068;DHT22;10194;50.824;7.134;2022-10-04T08:01:38;13.00;99.90
20068;DHT22;10194;50.824;7.134;2022-10-04T08:10:36;13.10;99.90
20068;DHT22;10194;50.824;7.134;2022-10-04T08:13:41;12.90;99.90
20068;DHT22;10194;50.824;7.134;2022-10-04T08:16:36;13.00;99.90
20068;DHT22;10194;50.824;7.134;2022-10-04T08:22:13;12.80;99.90
20068;DHT22;10194;50.824;7.134;2022-10-04T08:25:09;12.60;99.90
20068;DHT22;10194;50.824;7.134;2022-10-04T08:31:02;12.90;99.90
20068;DHT22;10194;50.824;7.134;2022-10-04T09:01:26;13.10;99.90
20068;DHT22;10194;50.824;7.134;2022-10-04T09:04:38;12.70;99.90
20068;DHT22;10194;50.824;7.134;2022-10-04T09:07:31;12.90;99.90
20068;DHT22;10194;50.824;7.134;2022-10-04T09:22:51;13.10;99.90
20068;DHT22;10194;50.824;7.134;2022-10-04T09:39:45;13.30;99.90
20068;DHT22;10194;50.824;7.134;2022-10-04T09:48:44;13.70;99.90
20068;DHT22;10194;50.824;7.134;2022-10-04T09:58:30;14.40;99.90
20068;DHT22;10194;50.824;7.134;2022-10-04T10:01:20;14.60;99.90
20068;DHT22;10194;50.824;7.134;2022-10-04T10:28:41;16.20;99.90
20068;DHT22;10194;50.824;7.134;2022-10-04T10:32:02;16.30;99.90
20068;DHT22;10194;50.824;7.134;2022-10-04T10:34:58;16.10;99.90
20068;DHT22;10194;50.824;7.134;2022-10-04T10:49:21;16.30;99.90
20068;DHT22;10194;50.824;7.134;2022-10-04T11:07:42;16.90;99.90
20068;DHT22;10194;50.824;7.134;2022-10-04T11:17:09;17.10;99.90
20068;DHT22;10194;50.824;7.134;2022-10-04T11:31:31;16.80;99.90
20068;DHT22;10194;50.824;7.134;2022-10-04T11:34:50;16.70;99.90
20068;DHT22;10194;50.824;7.134;2022-10-04T11:37:51;16.80;99.90
20068;DHT22;10194;50.824;7.134;2022-10-04T11:49:53;17.20;99.90
20068;DHT22;10194;50.824;7.134;2022-10-04T12:30:22;17.50;99.90
20068;DHT22;10194;50.824;7.134;2022-10-04T12:50:34;17.70;99.90
20068;DHT22;10194;50.824;7.134;2022-10-04T12:53:27;17.80;99.90
20068;DHT22;10194;50.824;7.134;2022-10-04T12:56:21;17.90;99.90
20068;DHT22;10194;50.824;7.134;2022-10-04T13:04:35;18.00;99.90
20068;DHT22;10194;50.824;7.134;2022-10-04T13:10:23;18.20;99.90
20068;DHT22;10194;50.824;7.134;2022-10-04T13:18:49;18.30;99.90
20068;DHT22;10194;50.824;7.134;2022-10-04T13:24:47;18.30;99.90
20068;DHT22;10194;50.824;7.134;2022-10-04T13:27:59;18.50;99.90
20068;DHT22;10194;50.824;7.134;2022-10-04T13:31:09;18.50;99.90
20068;DHT22;10194;50.824;7.134;2022-10-04T13:37:39;18.60;99.90
20068;DHT22;10194;50.824;7.134;2022-10-04T13:40:37;18.70;99.90
20068;DHT22;10194;50.824;7.134;2022-10-04T13:51:56;18.70;99.90
20068;DHT22;10194;50.824;7.134;2022-10-04T14:01:37;18.90;99.90
20068;DHT22;10194;50.824;7.134;2022-10-04T14:07:41;18.90;99.90
20068;DHT22;10194;50.824;7.134;2022-10-04T14:13:03;19.10;99.90
20068;DHT22;10194;50.824;7.134;2022-10-04T14:31:11;19.30;99.90
20068;DHT22;10194;50.824;7.134;2022-10-04T14:37:03;19.30;99.90
20068;DHT22;10194;50.824;7.134;2022-10-04T14:45:20;19.40;99.90
20068;DHT22;10194;50.824;7.134;2022-10-04T14:59:45;19.30;99.90
20068;DHT22;10194;50.824;7.134;2022-10-04T15:05:35;19.20;99.90
20068;DHT22;10194;50.824;7.134;2022-10-04T15:11:49;19.40;99.90
20068;DHT22;10194;50.824;7.134;2022-10-04T15:14:28;19.40;99.90
20068;DHT22;10194;50.824;7.134;2022-10-04T15:17:02;19.40;99.90
20068;DHT22;10194;50.824;7.134;2022-10-04T15:19:33;19.40;99.90
20068;DHT22;10194;50.824;7.134;2022-10-04T15:22:21;19.40;99.90
20068;DHT22;10194;50.824;7.134;2022-10-04T15:24:52;19.40;99.90
20068;DHT22;10194;50.824;7.134;2022-10-04T15:33:16;19.20;99.90
20068;DHT22;10194;50.824;7.134;2022-10-04T15:36:12;19.20;99.90
20068;DHT22;10194;50.824;7.134;2022-10-04T15:39:09;19.20;99.90
20068;DHT22;10194;50.824;7.134;2022-10-04T15:47:53;19.20;99.90
20068;DHT22;10194;50.824;7.134;2022-10-04T15:56:40;19.00;99.90
20068;DHT22;10194;50.824;7.134;2022-10-04T15:59:26;18.90;99.90
20068;DHT22;10194;50.824;7.134;2022-10-04T16:13:30;18.70;99.90
20068;DHT22;10194;50.824;7.134;2022-10-04T16:19:05;18.60;99.90
20068;DHT22;10194;50.824;7.134;2022-10-04T16:21:52;18.60;99.90
20068;DHT22;10194;50.824;7.134;2022-10-04T16:32:44;18.10;99.90
20068;DHT22;10194;50.824;7.134;2022-10-04T16:35:44;18.00;99.90
20068;DHT22;10194;50.824;7.134;2022-10-04T16:38:22;17.90;99.90
20068;DHT22;10194;50.824;7.134;2022-10-04T16:51:30;17.60;99.90
20068;DHT22;10194;50.824;7.134;2022-10-04T16:57:11;17.20;99.90
20068;DHT22;10194;50.824;7.134;2022-10-04T17:05:18;16.80;99.90
20068;DHT22;10194;50.824;7.134;2022-10-04T17:16:27;16.30;99.90
20068;DHT22;10194;50.824;7.134;2022-10-04T17:21:57;16.30;99.90
20068;DHT22;10194;50.824;7.134;2022-10-04T17:24:51;16.00;99.90
20068;DHT22;10194;50.824;7.134;2022-10-04T17:30:49;16.00;99.90
20068;DHT22;10194;50.824;7.134;2022-10-04T17:33:34;15.70;99.90
20068;DHT22;10194;50.824;7.134;2022-10-04T17:36:43;15.50;99.90
20068;DHT22;10194;50.824;7.134;2022-10-04T17:48:22;15.40;99.90
20068;DHT22;10194;50.824;7.134;2022-10-04T17:51:52;15.30;99.90
20068;DHT22;10194;50.824;7.134;2022-10-04T17:54:50;15.30;99.90
20068;DHT22;10194;50.824;7.134;2022-10-04T18:03:40;15.10;99.90
20068;DHT22;10194;50.824;7.134;2022-10-04T18:06:36;15.00;99.90
20068;DHT22;10194;50.824;7.134;2022-10-04T18:09:21;14.80;99.90
20068;DHT22;10194;50.824;7.134;2022-10-04T18:12:43;14.70;99.90
20068;DHT22;10194;50.824;7.134;2022-10-04T18:15:26;14.40;99.90
20068;DHT22;10194;50.824;7.134;2022-10-04T18:23:33;14.50;99.90
20068;DHT22;10194;50.824;7.134;2022-10-04T18:26:15;14.50;99.90
20068;DHT22;10194;50.824;7.134;2022-10-04T18:28:43;14.40;99.90
20068;DHT22;10194;50.824;7.134;2022-10-04T18:31:22;14.30;99.90
20068;DHT22;10194;50.824;7.134;2022-10-04T18:34:29;14.50;99.90
20068;DHT22;10194;50.824;7.134;2022-10-04T18:39:47;14.50;99.90
20068;DHT22;10194;50.824;7.134;2022-10-04T18:42:40;14.40;99.90
20068;DHT22;10194;50.824;7.134;2022-10-04T18:45:31;14.40;99.90
20068;DHT22;10194;50.824;7.134;2022-10-04T18:47:59;14.40;99.90
20068;DHT22;10194;50.824;7.134;2022-10-04T18:50:34;14.30;99.90
20068;DHT22;10194;50.824;7.134;2022-10-04T19:02:01;14.00;99.90
20068;DHT22;10194;50.824;7.134;2022-10-04T19:08:29;13.80;99.90
20068;DHT22;10194;50.824;7.134;2022-10-04T19:11:33;13.80;99.90
20068;DHT22;10194;50.824;7.134;2022-10-04T19:18:03;13.80;99.90
20068;DHT22;10194;50.824;7.134;2022-10-04T19:20:26;13.70;99.90
20068;DHT22;10194;50.824;7.134;2022-10-04T19:25:46;13.70;99.90
20068;DHT22;10194;50.824;7.134;2022-10-04T19:28:19;13.70;99.90
20068;DHT22;10194;50.824;7.134;2022-10-04T19:31:24;13.70;99.90
20068;DHT22;10194;50.824;7.134;2022-10-04T19:34:02;13.70;99.90
20068;DHT22;10194;50.824;7.134;2022-10-04T19:37:05;13.80;99.90
20068;DHT22;10194;50.824;7.134;2022-10-04T19:39:51;13.70;99.90
20068;DHT22;10194;50.824;7.134;2022-10-04T19:48:27;13.60;99.90
20068;DHT22;10194;50.824;7.134;2022-10-04T19:51:28;13.50;99.90
20068;DHT22;10194;50.824;7.134;2022-10-04T19:54:12;13.20;99.90
20068;DHT22;10194;50.824;7.134;2022-10-04T19:56:48;13.20;99.90
20068;DHT22;10194;50.824;7.134;2022-10-04T19:59:32;13.00;99.90
20068;DHT22;10194;50.824;7.134;2022-10-04T20:02:01;13.00;99.90
20068;DHT22;10194;50.824;7.134;2022-10-04T20:04:26;13.10;99.90
20068;DHT22;10194;50.824;7.134;2022-10-04T20:07:19;13.10;99.90
20068;DHT22;10194;50.824;7.134;2022-10-04T20:09:54;13.20;99.90
20068;DHT22;10194;50.824;7.134;2022-10-04T20:12:35;13.20;99.90
20068;DHT22;10194;50.824;7.134;2022-10-04T20:26:09;13.20;99.90
20068;DHT22;10194;50.824;7.134;2022-10-04T20:28:38;13.20;99.90
20068;DHT22;10194;50.824;7.134;2022-10-04T20:33:54;13.10;99.90
20068;DHT22;10194;50.824;7.134;2022-10-04T20:44:01;12.80;99.90
20068;DHT22;10194;50.824;7.134;2022-10-04T20:46:36;12.80;99.90
20068;DHT22;10194;50.824;7.134;2022-10-04T20:49:04;12.90;99.90
20068;DHT22;10194;50.824;7.134;2022-10-04T20:51:45;12.90;99.90
20068;DHT22;10194;50.824;7.134;2022-10-04T20:54:16;12.90;99.90
20068;DHT22;10194;50.824;7.134;2022-10-04T20:56:45;12.90;99.90
20068;DHT22;10194;50.824;7.134;2022-10-04T20:59:16;12.80;99.90
20068;DHT22;10194;50.824;7.134;2022-10-04T21:02:02;12.90;99.90
20068;DHT22;10194;50.824;7.134;2022-10-04T21:04:36;12.80;99.90
20068;DHT22;10194;50.824;7.134;2022-10-04T21:07:16;12.80;99.90
20068;DHT22;10194;50.824;7.134;2022-10-04T21:09:43;12.80;99.90
20068;DHT22;10194;50.824;7.134;2022-10-04T21:12:29;12.60;99.90
20068;DHT22;10194;50.824;7.134;2022-10-04T21:19:56;12.60;99.90
20068;DHT22;10194;50.824;7.134;2022-10-04T21:24:56;12.60;99.90
20068;DHT22;10194;50.824;7.134;2022-10-04T21:27:42;12.60;99.90
20068;DHT22;10194;50.824;7.134;2022-10-04T21:30:15;12.50;99.90
20068;DHT22;10194;50.824;7.134;2022-10-04T21:32:42;12.50;99.90
20068;DHT22;10194;50.824;7.134;2022-10-04T21:35:09;12.50;99.90
20068;DHT22;10194;50.824;7.134;2022-10-04T21:37:35;12.50;99.90
20068;DHT22;10194;50.824;7.134;2022-10-04T21:40:01;12.50;99.90
20068;DHT22;10194;50.824;7.134;2022-10-04T21:42:27;12.60;99.90
20068;DHT22;10194;50.824;7.134;2022-10-04T21:44:53;12.50;99.90
20068;DHT22;10194;50.824;7.134;2022-10-04T21:47:19;12.50;99.90
20068;DHT22;10194;50.824;7.134;2022-10-04T21:49:47;12.50;99.90
20068;DHT22;10194;50.824;7.134;2022-10-04T21:52:14;12.30;99.90
20068;DHT22;10194;50.824;7.134;2022-10-04T21:54:41;12.30;99.90
20068;DHT22;10194;50.824;7.134;2022-10-04T21:57:07;12.30;99.90
20068;DHT22;10194;50.824;7.134;2022-10-04T21:59:33;12.30;99.90
20068;DHT22;10194;50.824;7.134;2022-10-04T22:01:59;12.40;99.90
20068;DHT22;10194;50.824;7.134;2022-10-04T22:04:25;12.30;99.90
20068;DHT22;10194;50.824;7.134;2022-10-04T22:06:50;12.20;99.90
20068;DHT22;10194;50.824;7.134;2022-10-04T22:09:16;12.10;99.90
20068;DHT22;10194;50.824;7.134;2022-10-04T22:11:42;12.10;99.90
20068;DHT22;10194;50.824;7.134;2022-10-04T22:14:08;12.10;99.90
20068;DHT22;10194;50.824;7.134;2022-10-04T22:16:34;12.20;99.90
20068;DHT22;10194;50.824;7.134;2022-10-04T22:18:59;12.10;99.90
20068;DHT22;10194;50.824;7.134;2022-10-04T22:21:25;12.10;99.90
20068;DHT22;10194;50.824;7.134;2022-10-04T22:23:51;12.00;99.90
20068;DHT22;10194;50.824;7.134;2022-10-04T22:26:18;11.90;99.90
20068;DHT22;10194;50.824;7.134;2022-10-04T22:28:51;11.80;99.90
20068;DHT22;10194;50.824;7.134;2022-10-04T22:31:24;11.90;99.90
20068;DHT22;10194;50.824;7.134;2022-10-04T22:33:52;11.80;99.90
20068;DHT22;10194;50.824;7.134;2022-10-04T22:36:25;11.80;99.90
20068;DHT22;10194;50.824;7.134;2022-10-04T22:41:38;11.50;99.90
20068;DHT22;10194;50.824;7.134;2022-10-04T22:46:55;11.60;99.90
20068;DHT22;10194;50.824;7.134;2022-10-04T22:49:26;11.50;99.90
20068;DHT22;10194;50.824;7.134;2022-10-04T22:51:54;11.50;99.90
20068;DHT22;10194;50.824;7.134;2022-10-04T22:54:26;11.50;99.90
20068;DHT22;10194;50.824;7.134;2022-10-04T22:56:56;11.60;99.90
20068;DHT22;10194;50.824;7.134;2022-10-04T22:59:26;11.50;99.90
20068;DHT22;10194;50.824;7.134;2022-10-04T23:02:04;11.50;99.90
20068;DHT22;10194;50.824;7.134;2022-10-04T23:04:55;11.50;99.90
20068;DHT22;10194;50.824;7.134;2022-10-04T23:07:23;11.50;99.90
20068;DHT22;10194;50.824;7.134;2022-10-04T23:09:49;11.60;99.90
20068;DHT22;10194;50.824;7.134;2022-10-04T23:12:14;11.50;99.90
20068;DHT22;10194;50.824;7.134;2022-10-04T23:14:40;11.50;99.90
20068;DHT22;10194;50.824;7.134;2022-10-04T23:17:28;11.50;99.90
20068;DHT22;10194;50.824;7.134;2022-10-04T23:22:31;11.30;99.90
20068;DHT22;10194;50.824;7.134;2022-10-04T23:24:57;11.40;99.90
20068;DHT22;10194;50.824;7.134;2022-10-04T23:27:23;11.50;99.90
20068;DHT22;10194;50.824;7.134;2022-10-04T23:30:00;11.50;99.90
20068;DHT22;10194;50.824;7.134;2022-10-04T23:32:27;11.50;99.90
20068;DHT22;10194;50.824;7.134;2022-10-04T23:34:53;11.40;99.90
20068;DHT22;10194;50.824;7.134;2022-10-04T23:37:24;11.40;99.90
20068;DHT22;10194;50.824;7.134;2022-10-04T23:39:52;11.30;99.90
20068;DHT22;10194;50.824;7.134;2022-10-04T23:42:20;11.30;99.90
20068;DHT22;10194;50.824;7.134;2022-10-04T23:44:53;11.30;99.90
20068;DHT22;10194;50.824;7.134;2022-10-04T23:47:21;11.30;99.90
20068;DHT22;10194;50.824;7.134;2022-10-04T23:49:49;11.30;99.90
20068;DHT22;10194;50.824;7.134;2022-10-04T23:52:36;11.30;99.90
20068;DHT22;10194;50.824;7.134;2022-10-04T23:55:53;11.20;99.90
20068;DHT22;10194;50.824;7.134;2022-10-04T23:58:00;11.20;99.90
